Terminal Aerodrome Forecast
Issued by NWS Grand Forks, ND

Home | Current Version | Previous Version | Text Only | Print | Product List | Glossary On
Versions: 1 2 3 4 5 6 7 8 9 10 11 12 13 14 15 16 17 18 19 20 21 22 23 24 25 26 27 28 29
000
FTUS43 KFGF 042324
TAFGFK
TAF
KGFK 042324Z 0500/0524 17007KT P6SM SCT060
      TEMPO 0500/0501 BKN060
     FM050600 VRB06KT P6SM SCT250
      TEMPO 0509/0512 BKN012
     FM051400 03008KT P6SM BKN015=

USA.gov is the U.S. government's official web portal to all federal, state and local government web resources and services.